Weather observations for the past three days for
Alabaster, Shelby County Airport
Imperial (Metric)
Date Time (cdt) Wind (mph) Vis. (mi.) Weather Sky Cond. Temperature (ºF) Relative Humidity Wind Chill (°F) Heat Index (°F) Pressure Precipitation (in)
Air Dwpt 6 hour altimeter (in) sea level (mb) 1 hr 3 hr 6 hr
Max. Min.
03 09:53 Calm 10.00 Fair CLR 89.1 73 59% 97 30.06 1016.9
03 08:53 Calm 10.00 Fair CLR 84.9 73 68% 92 30.05 1016.8
03 07:53 Calm 9.00 Fair CLR 80.1 73 79% 84 30.05 1016.7
03 06:53 Calm 8.00 Fair CLR 75.9 72 77 73.9 88% 76 30.05 1016.6
03 05:53 Calm 10.00 Fair CLR 75 73 94% 73 30.03 1016.0
03 04:53 Calm 10.00 Fair CLR 75 73 94% 73 30.03 1015.8
03 03:53 Calm 10.00 A Few Clouds FEW070 75.9 73 91% 76 30.02 1015.7
03 02:53 Calm 10.00 Fair CLR 75.9 73.9 94% 75 30.02 1015.7
03 01:53 Calm 10.00 Fair CLR 77 73.9 90% 78 30.02 1015.8
03 00:53 Calm 10.00 Fair CLR 77 73.9 91 77 90% 78 30.03 1016.0
02 23:53 Calm 10.00 Fair CLR 78.1 73.9 87% 81 30.03 1015.9
02 22:53 Calm 10.00 Fair CLR 79 73.9 85% 83 30.03 1016.1
02 21:53 Calm 10.00 Fair CLR 80.1 73.9 82% 85 30.03 1016.0
02 20:53 Calm 10.00 Fair CLR 81 73.9 79% 86 30.03 1016.0
02 19:53 Calm 10.00 Fair CLR 84 72 67% 90 30 1015.2
02 18:53 Calm 10.00 Fair CLR 91 70 98.1 90 50% 97 30 1015.2
02 17:53 Vrbl 3 10.00 Fair CLR 93.9 69.1 44% 99 30 1014.9
02 16:53 S 6 10.00 A Few Clouds FEW065 93.9 69.1 44% 99 30.01 1015.3
02 15:53 SE 5 10.00 A Few Clouds FEW070 95 68 41% 100 30.01 1015.4
02 14:53 Vrbl 3 10.00 A Few Clouds FEW050 93.9 70 46% 100 30.03 1016.0
02 13:53 Calm 10.00 Mostly Cloudy FEW065 SCT080 BKN100 96.1 69.1 41% 102 30.05 1016.8
02 12:53 Vrbl 7 10.00 A Few Clouds FEW060 96.1 69.1 96.1 73.9 41% 102 30.07 1017.5
02 11:53 Calm 10.00 Fair CLR 93.9 69.1 44% 99 30.1 1018.2
02 10:53 Calm 10.00 Fair CLR 91.9 68 46% 96 30.12 1019.0
02 09:53 Vrbl 3 9.00 Fair CLR 88 73 61% 96 30.12 1018.9
02 08:53 Calm 10.00 Fair CLR 84 73 70% 90 30.11 1019.0
02 07:53 Calm 8.00 Fair CLR 79 72 79% 82 30.11 1018.9
02 06:53 Calm 8.00 Fair CLR 73.9 72 78.1 73 94% 30.1 1018.6
02 05:53 Calm 9.00 Fair CLR 73.9 72 94% 30.09 1017.9
02 04:53 Calm 10.00 Fair CLR 73.9 72 94% 30.08 1017.6
02 03:53 Calm 10.00 Fair CLR 75 72 90% 74 30.06 1017.0
02 02:53 Calm 9.00 Fair CLR 75 73 94% 73 30.05 1016.7
02 01:53 Calm 10.00 Fair CLR 75.9 72 88% 76 30.05 1016.8
02 00:53 Calm 10.00 Fair CLR 77 71.1 90 75.9 82% 79 30.06 1017.0
01 23:53 Calm 10.00 Fair CLR 77 73 88% 78 30.06 1016.9
01 22:53 Calm 10.00 Fair CLR 79 73 82% 82 30.07 1017.3
01 21:53 Calm 10.00 Fair CLR 80.1 72 76% 84 30.07 1017.3
01 20:53 Calm 9.00 Fair CLR 81 72 74% 85 30.05 1016.8
01 19:53 Calm 10.00 Fair CLR 86 69.1 57% 90 30.04 1016.3
01 18:53 NE 5 10.00 Fair CLR 90 68 97 90 48% 94 30.03 1016.1
01 17:53 Vrbl 5 10.00 Fair CLR 93.9 66.9 41% 98 30.04 1016.2
01 16:53 Vrbl 7 10.00 Fair CLR 95 68 41% 100 30.03 1016.0
01 15:53 Vrbl 6 10.00 Fair CLR 95 66.9 40% 99 30.04 1016.3
01 14:53 Vrbl 6 10.00 Fair CLR 93.9 66 40% 97 30.06 1017.0
01 13:53 Calm 10.00 A Few Clouds FEW060 95 66.9 40% 99 30.08 1017.6
01 12:53 Vrbl 5 10.00 A Few Clouds FEW060 93 68 93 73 44% 97 30.09 1018.1
01 11:53 Vrbl 5 10.00 Fair CLR 91 66.9 45% 94 30.12 1019.0
01 10:53 N 5 10.00 Fair CLR 90 70 52% 95 30.13 1019.3
01 09:53 Vrbl 3 10.00 Fair CLR 87.1 72 61% 94 30.13 1019.6
01 08:53 NE 5 10.00 Fair CLR 82.9 72 70% 88 30.13 1019.6
01 07:53 Vrbl 3 10.00 Fair CLR 79 71.1 77% 82 30.13 1019.6
01 06:53 Calm 10.00 Fair CLR 73 71.1 78.1 72 94% 30.11 1018.9
01 05:53 Calm 10.00 Fair CLR 73 72 96% 30.1 1018.3
01 04:53 Calm 10.00 Fair CLR 73.9 72 94% 30.09 1018.0
01 03:53 Calm 10.00 Fair CLR 73.9 72 94% 30.08 1017.7
01 02:53 Calm 10.00 Fair CLR 75 72 90% 74 30.07 1017.4
01 01:53 Calm 10.00 Fair CLR 75 73 94% 73 30.07 1017.4
01 00:53 Calm 10.00 Fair CLR 77 73 89.1 75.9 88% 78 30.07 1017.5
31 23:53 Calm 10.00 Fair CLR 77 73.9 90% 78 30.08 1017.7
31 22:53 Calm 10.00 Fair CLR 78.1 73 85% 81 30.08 1017.9
31 21:53 Calm 10.00 Fair CLR 79 73 82% 82 30.08 1017.9
31 20:53 Calm 10.00 Fair CLR 82 73 74% 87 30.07 1017.6
31 19:53 Calm 10.00 Fair CLR 86 71.1 61% 92 30.05 1016.8
31 18:53 Calm 10.00 Fair CLR 89.1 70 95 89.1 53% 94 30.05 1016.8
31 17:53 NE 6 10.00 Fair CLR 91.9 69.1 47% 97 30.05 1016.8
31 16:53 Vrbl 5 10.00 Fair CLR 93 70 47% 99 30.05 1016.8
31 15:53 Vrbl 5 10.00 A Few Clouds FEW055 93.9 69.1 44% 99 30.06 1017.1
31 14:53 Vrbl 6 10.00 Fair CLR 91.9 69.1 47% 97 30.08 1017.7
31 13:53 Vrbl 3 10.00 Fair CLR 91.9 70 49% 98 30.1 1018.2
31 12:53 Vrbl 5 10.00 A Few Clouds FEW049 91 71.1 91 73.9 52% 98 30.12 1019.0
31 11:53 Vrbl 5 10.00 Partly Cloudy SCT035 SCT055 88 72 59% 95 30.14 1019.6
31 10:53 Vrbl 6 10.00 A Few Clouds FEW029 87.1 73 63% 95 30.15 1020.1
Date Time (cdt) Wind (mph) Vis. (mi.) Weather Sky Cond. Air Dwpt Max. Min. Relative Humidity Wind Chill (°F) Heat Index (°F) altimeter (in) sea level (mb) 1 hr 3 hr 6 hr
6 hour
Temperature (ºF) Pressure Precipitation (in)